Time;durP1;ratioP1;P1;durP2;ratioP2;P2;SDS_P1;SDS_P2;PMS_P1;PMS_P2;Temp;Humidity;BMP_temperature;BMP_pressure;BME280_temperature;BME280_humidity;BME280_pressure;Samples;Min_cycle;Max_cycle;Signal;HPM_P1;HPM_P2
2022/03/08 00:00:19;;;;;;;13.38;7.97;;;;;;;2.08;73.77;102350.47;5051073;28;20510;-55
2022/03/08 00:02:44;;;;;;;15.13;8.38;;;;;;;2.06;73.89;102349.69;5036925;28;20055;-55
2022/03/08 00:05:10;;;;;;;12.93;6.88;;;;;;;2.04;73.98;102344.50;5037709;28;20032;-55
2022/03/08 00:07:35;;;;;;;14.68;7.30;;;;;;;2.03;74.10;102337.50;5050862;28;20025;-55
2022/03/08 00:10:01;;;;;;;15.75;7.00;;;;;;;2.03;73.47;102340.13;5036331;28;20423;-54
2022/03/08 00:12:26;;;;;;;13.13;6.95;;;;;;;1.98;73.23;102336.84;5042145;28;20033;-54
2022/03/08 00:14:51;;;;;;;14.13;7.50;;;;;;;1.91;74.82;102330.16;5051563;28;20051;-55
2022/03/08 00:17:16;;;;;;;16.98;7.03;;;;;;;1.92;73.61;102333.63;5035332;28;20036;-55
2022/03/08 00:19:42;;;;;;;13.73;6.95;;;;;;;1.90;73.84;102339.00;5034520;28;20029;-55
2022/03/08 00:22:07;;;;;;;16.02;7.15;;;;;;;1.85;73.44;102335.69;5044437;28;20355;-55
2022/03/08 00:24:34;;;;;;;15.00;7.20;;;;;;;1.81;73.47;102328.84;5034694;28;20029;-55
2022/03/08 00:26:59;;;;;;;14.52;7.05;;;;;;;1.80;74.31;102333.28;5044024;28;20552;-55
2022/03/08 00:29:24;;;;;;;16.42;7.18;;;;;;;1.78;73.91;102331.63;5055249;28;20032;-55
2022/03/08 00:31:50;;;;;;;13.23;6.60;;;;;;;1.77;73.91;102322.88;5050942;28;20104;-55
2022/03/08 00:34:15;;;;;;;19.85;7.35;;;;;;;1.76;74.14;102325.56;5055097;28;20071;-55
2022/03/08 00:36:40;;;;;;;12.32;6.50;;;;;;;1.72;72.60;102326.63;5070144;28;20623;-55
2022/03/08 00:39:05;;;;;;;12.52;6.80;;;;;;;1.70;73.84;102325.81;5074476;28;20024;-55
2022/03/08 00:41:31;;;;;;;11.68;6.45;;;;;;;1.65;73.69;102319.00;5062153;28;20074;-55
2022/03/08 00:43:56;;;;;;;13.02;6.70;;;;;;;1.65;73.96;102329.53;5062030;28;20057;-55
2022/03/08 00:46:21;;;;;;;11.00;6.38;;;;;;;1.63;73.06;102326.13;5069606;28;20099;-55
2022/03/08 00:48:46;;;;;;;11.50;6.38;;;;;;;1.58;72.06;102322.81;5072217;28;20391;-55
2022/03/08 00:51:12;;;;;;;12.98;6.30;;;;;;;1.60;72.98;102328.03;5067224;28;20031;-54
2022/03/08 00:53:37;;;;;;;12.27;6.57;;;;;;;1.59;73.40;102327.16;5074445;28;20434;-55
2022/03/08 00:56:03;;;;;;;12.07;6.38;;;;;;;1.60;72.89;102328.03;5074925;28;20381;-56
2022/03/08 00:58:29;;;;;;;13.30;6.57;;;;;;;1.61;72.88;102332.34;5074220;28;20099;-56
2022/03/08 01:00:54;;;;;;;12.88;6.50;;;;;;;1.61;73.68;102330.59;5075662;28;20027;-55
2022/03/08 01:03:19;;;;;;;11.77;6.20;;;;;;;1.58;72.75;102320.19;5064305;28;20043;-55
2022/03/08 01:05:44;;;;;;;16.05;6.72;;;;;;;1.56;72.40;102332.56;5055091;28;20094;-54
2022/03/08 01:08:10;;;;;;;13.88;6.88;;;;;;;1.52;72.04;102327.50;5056697;28;20054;-55
2022/03/08 01:10:36;;;;;;;12.95;6.40;;;;;;;1.50;74.02;102322.28;5072453;28;20032;-55
2022/03/08 01:13:03;;;;;;;13.15;6.50;;;;;;;1.48;73.72;102322.34;5067772;28;20335;-55
2022/03/08 01:15:28;;;;;;;10.93;6.43;;;;;;;1.46;73.93;102325.97;5056288;28;20288;-55
2022/03/08 01:17:55;;;;;;;14.50;5.95;;;;;;;1.45;73.81;102324.25;5055451;28;20359;-56
2022/03/08 01:20:20;;;;;;;15.50;7.10;;;;;;;1.41;73.32;102309.50;5053414;28;20028;-56
2022/03/08 01:22:45;;;;;;;10.77;6.03;;;;;;;1.37;72.88;102314.06;5054557;28;20021;-55
2022/03/08 01:25:13;;;;;;;13.35;6.60;;;;;;;1.32;72.81;102308.13;5053399;28;20021;-56
2022/03/08 01:27:39;;;;;;;11.32;6.10;;;;;;;1.30;73.63;102312.59;5058358;28;20507;-55
2022/03/08 01:30:07;;;;;;;10.90;6.13;;;;;;;1.26;73.76;102311.03;5072699;28;20115;-55
2022/03/08 01:32:32;;;;;;;14.00;6.93;;;;;;;1.25;74.75;102309.31;5074029;28;20573;-56
2022/03/08 01:34:57;;;;;;;11.40;6.28;;;;;;;1.21;73.78;102303.31;5060211;28;20134;-56
2022/03/08 01:37:23;;;;;;;13.80;6.63;;;;;;;1.21;74.02;102294.59;5044066;28;20050;-55
2022/03/08 01:39:48;;;;;;;13.10;6.35;;;;;;;1.22;73.85;102298.91;5047216;28;20527;-55
2022/03/08 01:42:16;;;;;;;13.13;6.47;;;;;;;1.21;73.72;102290.16;5053836;28;20039;-55
2022/03/08 01:44:43;;;;;;;13.30;6.47;;;;;;;1.21;74.72;102286.69;5050148;28;20039;-55
2022/03/08 01:47:13;;;;;;;16.13;6.47;;;;;;;1.20;73.85;102285.81;5040346;28;20502;-56
2022/03/08 01:49:39;;;;;;;10.25;5.85;;;;;;;1.18;73.29;102289.44;5033676;28;20029;-55
2022/03/08 01:52:05;;;;;;;13.40;6.63;;;;;;;1.17;73.34;102283.34;5053186;28;20064;-55
2022/03/08 01:54:30;;;;;;;10.52;6.65;;;;;;;1.18;74.36;102284.19;5052383;28;20031;-55
2022/03/08 01:56:55;;;;;;;11.57;6.40;;;;;;;1.14;72.88;102275.56;5046968;28;20107;-55
2022/03/08 01:59:21;;;;;;;12.57;6.03;;;;;;;1.14;73.92;102266.78;5042538;28;20266;-55
2022/03/08 02:01:46;;;;;;;13.10;6.25;;;;;;;1.14;74.00;102269.44;5046965;28;20047;-55
2022/03/08 02:04:12;;;;;;;10.77;6.10;;;;;;;1.10;73.09;102264.31;5052761;28;20034;-55
2022/03/08 02:06:38;;;;;;;13.70;6.95;;;;;;;1.10;73.39;102269.56;5051868;28;20149;-55
2022/03/08 02:09:03;;;;;;;12.23;6.47;;;;;;;1.09;73.49;102259.97;5039834;28;20093;-55
2022/03/08 02:11:29;;;;;;;14.23;7.40;;;;;;;1.10;74.00;102255.53;5032870;28;20041;-55
2022/03/08 02:13:55;;;;;;;15.10;6.90;;;;;;;1.06;73.63;102260.09;5042110;28;20039;-55
2022/03/08 02:16:21;;;;;;;14.15;6.53;;;;;;;1.04;73.34;102250.56;5042320;28;20326;-55
2022/03/08 02:18:46;;;;;;;13.80;6.88;;;;;;;1.01;74.31;102248.91;5041931;28;20028;-55
2022/03/08 02:21:12;;;;;;;15.63;7.18;;;;;;;1.00;73.99;102255.09;5032517;28;20509;-55
2022/03/08 02:23:37;;;;;;;15.35;7.25;;;;;;;0.96;73.62;102250.03;5042931;28;20041;-55
2022/03/08 02:26:03;;;;;;;16.83;7.57;;;;;;;0.92;73.85;102247.50;5053278;28;20024;-54
2022/03/08 02:28:29;;;;;;;18.27;7.35;;;;;;;0.88;73.60;102258.22;5052264;28;20320;-55
2022/03/08 02:30:55;;;;;;;16.20;7.00;;;;;;;0.82;74.69;102232.19;5038755;28;20025;-55
2022/03/08 02:33:21;;;;;;;16.00;6.88;;;;;;;0.83;74.96;102239.16;5032403;28;20128;-55
2022/03/08 02:35:46;;;;;;;17.42;7.18;;;;;;;0.80;75.69;102240.16;5035605;28;20930;-55
2022/03/08 02:38:12;;;;;;;15.98;7.57;;;;;;;0.77;74.45;102237.63;5045950;28;20471;-55
2022/03/08 02:40:40;;;;;;;13.65;7.13;;;;;;;0.76;75.15;102235.91;5034133;28;20060;-55
2022/03/08 02:43:07;;;;;;;14.82;7.03;;;;;;;0.73;76.34;102226.38;5049077;28;20073;-55
2022/03/08 02:45:33;;;;;;;12.00;6.72;;;;;;;0.71;75.96;102222.09;5038442;28;20119;-55
2022/03/08 02:47:58;;;;;;;13.75;6.90;;;;;;;0.69;75.58;102227.41;5032673;28;20104;-55
2022/03/08 02:50:24;;;;;;;14.23;6.97;;;;;;;0.67;76.60;102218.75;5033555;28;20033;-55
2022/03/08 02:52:53;;;;;;;12.05;6.40;;;;;;;0.67;77.54;102223.16;5042319;28;20102;-55
2022/03/08 02:55:21;;;;;;;12.55;6.45;;;;;;;0.67;76.84;102223.16;5038986;28;20036;-56
2022/03/08 02:57:47;;;;;;;14.02;7.05;;;;;;;0.64;76.38;102220.66;5037972;28;20075;-55
2022/03/08 03:00:14;;;;;;;11.68;6.43;;;;;;;0.61;76.62;102218.13;5045637;28;20048;-55
2022/03/08 03:02:40;;;;;;;13.73;7.38;;;;;;;0.57;76.17;102211.31;5034647;28;20178;-54
2022/03/08 03:05:06;;;;;;;11.05;6.53;;;;;;;0.53;77.72;102207.94;5033003;28;20154;-55
2022/03/08 03:07:32;;;;;;;13.45;6.53;;;;;;;0.47;77.38;102206.41;5032560;28;20105;-54
2022/03/08 03:09:58;;;;;;;13.73;6.78;;;;;;;0.45;77.77;102203.00;5030784;28;20037;-55
2022/03/08 03:12:23;;;;;;;11.85;6.50;;;;;;;0.41;77.72;102201.41;5033770;28;20359;-55
2022/03/08 03:14:48;;;;;;;12.88;6.60;;;;;;;0.38;78.46;102192.81;5033094;28;20222;-55
2022/03/08 03:17:13;;;;;;;14.80;6.65;;;;;;;0.37;78.23;102186.66;5031067;28;20087;-55
2022/03/08 03:19:39;;;;;;;14.73;6.95;;;;;;;0.34;77.94;102187.66;5052203;28;20107;-54
2022/03/08 03:22:04;;;;;;;13.45;6.72;;;;;;;0.26;78.13;102173.97;5056711;28;20104;-55
2022/03/08 03:24:29;;;;;;;14.70;7.60;;;;;;;0.24;78.50;102172.31;5045244;28;20487;-55
2022/03/08 03:26:55;;;;;;;12.85;6.55;;;;;;;0.21;78.88;102175.94;5037797;28;20106;-55
2022/03/08 03:29:20;;;;;;;13.60;6.78;;;;;;;0.18;78.82;102168.16;5041232;28;20044;-55
2022/03/08 03:31:46;;;;;;;16.15;6.80;;;;;;;0.17;79.96;102171.69;5056073;28;20443;-55
2022/03/08 03:34:11;;;;;;;12.95;6.68;;;;;;;0.20;80.35;102181.25;5054855;28;20305;-55
2022/03/08 03:36:36;;;;;;;13.05;6.80;;;;;;;0.22;81.26;102177.66;5036275;28;20059;-55
2022/03/08 03:39:04;;;;;;;12.45;6.80;;;;;;;0.22;79.05;102177.66;5035712;28;20055;-55
2022/03/08 03:41:29;;;;;;;13.10;7.03;;;;;;;0.21;79.15;102177.72;5031839;28;20167;-55
2022/03/08 03:43:54;;;;;;;13.40;6.80;;;;;;;0.18;79.16;102182.16;5051400;28;20040;-56
2022/03/08 03:46:20;;;;;;;12.38;6.75;;;;;;;0.18;79.38;102190.03;5049709;28;20486;-55
2022/03/08 03:48:45;;;;;;;13.07;7.32;;;;;;;0.19;79.85;102183.03;5054065;28;20043;-55
2022/03/08 03:51:11;;;;;;;13.52;6.75;;;;;;;0.17;79.32;102185.72;5036519;28;20087;-55
2022/03/08 03:53:36;;;;;;;14.00;7.57;;;;;;;0.16;78.87;102191.88;5035405;28;20033;-55
2022/03/08 03:56:01;;;;;;;14.65;7.15;;;;;;;0.14;79.07;102180.56;5041675;28;20112;-55
2022/03/08 03:58:27;;;;;;;14.38;6.68;;;;;;;0.13;79.10;102191.13;5040721;28;20093;-55
2022/03/08 04:00:52;;;;;;;14.15;6.93;;;;;;;0.11;78.88;102185.94;5055941;28;20031;-55
2022/03/08 04:03:19;;;;;;;13.63;7.18;;;;;;;0.07;80.03;102176.47;5050839;28;20040;-55
2022/03/08 04:05:44;;;;;;;17.55;8.10;;;;;;;0.10;80.04;102186.88;5047299;28;20039;-55
2022/03/08 04:08:09;;;;;;;14.23;7.80;;;;;;;0.09;79.84;102182.53;5042062;28;20447;-55
2022/03/08 04:10:34;;;;;;;14.18;7.53;;;;;;;0.10;80.18;102186.00;5056333;28;20152;-55
2022/03/08 04:13:00;;;;;;;20.23;7.68;;;;;;;0.08;79.25;102178.19;5036624;28;20151;-55
2022/03/08 04:15:26;;;;;;;16.33;8.05;;;;;;;0.05;79.36;102178.31;5042563;28;20105;-55
2022/03/08 04:17:51;;;;;;;14.88;7.18;;;;;;;0.07;79.84;102172.97;5041769;28;20048;-55
2022/03/08 04:20:16;;;;;;;16.42;8.57;;;;;;;0.05;79.70;102166.94;5049522;28;20078;-56
2022/03/08 04:22:42;;;;;;;17.58;7.40;;;;;;;0.07;79.85;102171.22;5054787;28;20142;-56
2022/03/08 04:25:08;;;;;;;15.60;7.38;;;;;;;0.06;79.99;102166.03;5051201;28;20045;-53
2022/03/08 04:27:34;;;;;;;16.23;7.25;;;;;;;0.06;79.90;102166.88;5047651;28;20114;-55
2022/03/08 04:29:59;;;;;;;14.88;7.45;;;;;;;0.05;80.37;102164.31;5034045;28;20106;-55
2022/03/08 04:32:24;;;;;;;15.23;7.57;;;;;;;0.03;79.89;102163.53;5032474;28;20037;-55
2022/03/08 04:34:49;;;;;;;13.43;7.70;;;;;;;0.04;80.40;102166.09;5035264;28;20104;-55
2022/03/08 04:37:15;;;;;;;15.07;7.47;;;;;;;0.05;79.99;102164.31;5035694;28;20503;-55
2022/03/08 04:39:40;;;;;;;16.25;7.70;;;;;;;0.06;81.38;102164.25;5034702;28;20092;-55
2022/03/08 04:42:06;;;;;;;17.48;7.40;;;;;;;0.07;79.63;102162.47;5016952;28;20029;-55
2022/03/08 04:44:31;;;;;;;15.63;7.40;;;;;;;0.04;79.89;102167.88;5034342;28;20024;-55
2022/03/08 04:46:56;;;;;;;15.38;7.60;;;;;;;0.03;80.43;102168.78;5051758;28;20096;-55
2022/03/08 04:49:22;;;;;;;15.38;7.20;;;;;;;0.01;79.93;102170.63;5045544;28;20020;-55
2022/03/08 04:51:47;;;;;;;17.63;7.80;;;;;;;-0.03;79.59;102170.72;5036937;28;20123;-55
2022/03/08 04:54:13;;;;;;;13.07;7.40;;;;;;;-0.03;80.03;102168.09;5054871;28;20038;-55
2022/03/08 04:56:38;;;;;;;12.10;7.15;;;;;;;-0.04;80.04;102166.38;5041401;28;21356;-55
2022/03/08 04:59:04;;;;;;;13.75;7.65;;;;;;;-0.04;80.39;102165.53;5041424;28;20416;-55
2022/03/08 05:01:30;;;;;;;15.25;7.70;;;;;;;-0.04;81.48;102163.75;5032151;28;20123;-55
2022/03/08 05:03:55;;;;;;;16.17;7.85;;;;;;;-0.05;80.84;102163.81;5035249;28;20112;-55
2022/03/08 05:06:20;;;;;;;13.68;7.90;;;;;;;-0.06;80.48;102167.38;5046827;28;20369;-55
2022/03/08 05:08:46;;;;;;;18.77;7.50;;;;;;;-0.07;80.70;102163.91;5046488;28;20099;-54
2022/03/08 05:11:11;;;;;;;13.13;7.03;;;;;;;-0.09;80.65;102160.44;5053879;28;20055;-55
2022/03/08 05:13:37;;;;;;;14.85;7.47;;;;;;;-0.11;80.87;102166.69;5053421;28;20036;-55
2022/03/08 05:16:03;;;;;;;13.65;7.47;;;;;;;-0.14;80.67;102162.41;5045830;28;20025;-55
2022/03/08 05:18:28;;;;;;;15.30;8.43;;;;;;;-0.14;80.79;102157.16;5054326;28;20527;-55
2022/03/08 05:20:54;;;;;;;15.32;7.30;;;;;;;-0.13;81.31;102158.88;5019419;28;20028;-55
2022/03/08 05:23:19;;;;;;;14.75;7.25;;;;;;;-0.13;80.54;102152.78;5043888;28;20036;-55
2022/03/08 05:25:45;;;;;;;13.70;7.65;;;;;;;-0.14;80.95;102149.28;5035075;28;20036;-55
2022/03/08 05:28:10;;;;;;;14.05;7.35;;;;;;;-0.15;80.82;102144.94;5034664;28;20075;-55
2022/03/08 05:30:36;;;;;;;14.82;7.45;;;;;;;-0.15;81.38;102144.94;5033268;28;20066;-55
2022/03/08 05:33:01;;;;;;;14.50;7.20;;;;;;;-0.16;81.27;102147.63;5033766;28;20056;-55
2022/03/08 05:35:26;;;;;;;13.25;7.30;;;;;;;-0.18;81.26;102147.69;5054440;28;20132;-55
2022/03/08 05:37:52;;;;;;;15.23;7.55;;;;;;;-0.21;82.04;102142.56;5054225;28;20044;-55
2022/03/08 05:40:17;;;;;;;14.15;8.02;;;;;;;-0.21;81.32;102145.19;5052883;28;20346;-55
2022/03/08 05:42:44;;;;;;;15.50;7.95;;;;;;;-0.21;82.00;102143.41;5053959;28;20455;-55
2022/03/08 05:45:10;;;;;;;15.55;7.57;;;;;;;-0.24;81.55;102137.41;5052500;28;20077;-55
2022/03/08 05:47:37;;;;;;;12.95;7.13;;;;;;;-0.25;81.77;102130.47;5051241;28;20123;-55
2022/03/08 05:50:04;;;;;;;15.57;7.47;;;;;;;-0.24;82.49;102140.03;5049286;28;20050;-55
2022/03/08 05:52:29;;;;;;;15.98;7.15;;;;;;;-0.24;83.01;102137.41;5042448;28;20037;-55
2022/03/08 05:54:55;;;;;;;13.98;7.70;;;;;;;-0.26;82.82;102139.25;5045735;28;20243;-55
2022/03/08 05:57:20;;;;;;;18.70;8.02;;;;;;;-0.29;82.42;102136.75;5052506;28;20404;-55
2022/03/08 05:59:47;;;;;;;13.35;7.28;;;;;;;-0.30;83.04;102135.91;5036699;28;20039;-55
2022/03/08 06:02:12;;;;;;;15.27;8.05;;;;;;;-0.28;83.12;102135.84;5033180;28;20094;-55
2022/03/08 06:04:37;;;;;;;14.27;7.25;;;;;;;-0.30;83.24;102135.91;5045771;28;20029;-55
2022/03/08 06:07:03;;;;;;;16.67;7.32;;;;;;;-0.31;82.97;102125.44;5051882;28;20020;-55
2022/03/08 06:09:28;;;;;;;17.05;7.80;;;;;;;-0.31;82.90;102136.78;5050494;28;20394;-55
2022/03/08 06:11:53;;;;;;;15.13;7.32;;;;;;;-0.31;83.38;102134.16;5053264;28;20154;-55
2022/03/08 06:14:19;;;;;;;14.38;7.18;;;;;;;-0.30;82.69;102137.66;5050801;28;20047;-55
2022/03/08 06:16:44;;;;;;;12.30;7.13;;;;;;;-0.33;82.92;102136.00;5051454;28;20180;-55
2022/03/08 06:19:09;;;;;;;17.08;8.40;;;;;;;-0.30;83.41;102145.56;5052537;28;20031;-55
2022/03/08 06:21:35;;;;;;;19.75;8.25;;;;;;;-0.29;83.67;102144.63;5052562;28;20028;-55
2022/03/08 06:24:00;;;;;;;16.40;8.07;;;;;;;-0.30;83.22;102145.56;5052253;28;20086;-55
2022/03/08 06:26:26;;;;;;;20.23;7.80;;;;;;;-0.29;83.73;102142.88;5049374;28;20432;-55
2022/03/08 06:28:51;;;;;;;16.10;7.85;;;;;;;-0.29;83.78;102139.38;5043766;28;20027;-55
2022/03/08 06:31:16;;;;;;;15.55;7.82;;;;;;;-0.29;83.61;102135.00;5051164;28;20028;-55
2022/03/08 06:33:41;;;;;;;20.85;8.45;;;;;;;-0.26;83.37;102142.72;5051823;28;20024;-55
2022/03/08 06:36:07;;;;;;;14.43;7.82;;;;;;;-0.25;83.42;102147.06;5045675;28;20044;-55
2022/03/08 06:38:32;;;;;;;15.52;8.57;;;;;;;-0.22;82.79;102146.97;5033225;28;20039;-55
2022/03/08 06:40:57;;;;;;;17.42;8.70;;;;;;;-0.18;83.12;102139.81;5051412;28;20024;-56
2022/03/08 06:43:23;;;;;;;26.50;8.35;;;;;;;-0.11;82.79;102143.06;5052516;28;20533;-55
2022/03/08 06:45:48;;;;;;;17.45;8.20;;;;;;;-0.09;81.79;102136.81;5032901;28;20036;-55
2022/03/08 06:48:13;;;;;;;16.70;8.55;;;;;;;-0.03;82.51;102133.97;5044305;28;20052;-55
2022/03/08 06:50:39;;;;;;;16.80;7.85;;;;;;;0.02;82.13;102146.03;5042209;28;20241;-55
2022/03/08 06:53:05;;;;;;;14.80;7.88;;;;;;;0.05;81.90;102144.19;5025022;28;20499;-55
2022/03/08 06:55:30;;;;;;;18.70;8.45;;;;;;;0.11;81.20;102156.19;5036686;28;20077;-55
2022/03/08 06:57:55;;;;;;;17.98;8.30;;;;;;;0.15;80.88;102144.63;5057981;28;20059;-56
2022/03/08 07:00:20;;;;;;;15.52;8.52;;;;;;;0.20;80.56;102144.47;5041492;28;20021;-56
2022/03/08 07:02:46;;;;;;;15.40;8.50;;;;;;;0.23;79.87;102139.94;5059518;28;20849;-57
2022/03/08 07:05:11;;;;;;;17.40;8.55;;;;;;;0.28;80.12;102135.34;5059377;28;20043;-54
2022/03/08 07:07:38;;;;;;;16.77;8.00;;;;;;;0.35;79.70;102138.59;5040204;28;20104;-56
2022/03/08 07:10:04;;;;;;;16.10;8.48;;;;;;;0.39;79.75;102142.81;5044830;28;20090;-56
2022/03/08 07:12:29;;;;;;;16.98;8.05;;;;;;;0.46;79.45;102135.50;5021357;28;20041;-55
2022/03/08 07:14:55;;;;;;;16.45;8.77;;;;;;;0.49;79.10;102154.66;5052218;28;20232;-56
2022/03/08 07:17:20;;;;;;;20.98;8.52;;;;;;;0.53;78.43;102147.50;5057860;28;20020;-53
2022/03/08 07:19:45;;;;;;;15.90;8.50;;;;;;;0.60;78.63;102155.97;5040181;28;20352;-54
2022/03/08 07:22:10;;;;;;;14.00;7.88;;;;;;;0.61;78.25;102148.03;5059368;28;20017;-54
2022/03/08 07:24:36;;;;;;;16.13;8.60;;;;;;;0.70;77.68;102157.31;5058797;28;20032;-54
2022/03/08 07:27:01;;;;;;;18.00;8.35;;;;;;;0.77;78.23;102152.63;5059306;28;20024;-53
2022/03/08 07:29:26;;;;;;;16.42;8.75;;;;;;;0.82;77.01;102154.16;5031932;28;20111;-53
2022/03/08 07:31:52;;;;;;;16.23;8.23;;;;;;;0.88;76.33;102151.25;5043481;28;20134;-54
2022/03/08 07:34:17;;;;;;;19.63;8.82;;;;;;;0.97;76.24;102160.53;5051555;28;20071;-54
2022/03/08 07:36:42;;;;;;;17.98;7.65;;;;;;;1.04;75.87;102147.97;5046940;28;20416;-54
2022/03/08 07:39:08;;;;;;;14.15;8.13;;;;;;;1.13;75.62;102157.22;5057841;28;20364;-54
2022/03/08 07:41:33;;;;;;;14.68;7.88;;;;;;;1.19;75.91;102146.41;5057934;28;20056;-54
2022/03/08 07:44:01;;;;;;;19.05;8.70;;;;;;;1.29;75.54;102142.44;5056916;28;20025;-54
2022/03/08 07:46:26;;;;;;;19.05;8.80;;;;;;;1.36;74.54;102146.53;5055405;28;20398;-54
2022/03/08 07:48:52;;;;;;;16.55;8.77;;;;;;;1.44;73.57;102131.25;5039193;28;20059;-54
2022/03/08 07:51:17;;;;;;;17.83;8.98;;;;;;;1.51;74.32;102131.81;5048150;28;20020;-53
2022/03/08 07:53:43;;;;;;;16.02;8.80;;;;;;;1.61;72.39;102138.38;5054659;28;20127;-53
2022/03/08 07:56:08;;;;;;;13.85;8.60;;;;;;;1.70;71.68;102136.19;5056991;28;20548;-54
2022/03/08 07:58:37;;;;;;;18.77;8.13;;;;;;;1.77;71.70;102142.91;5058253;28;20041;-54
2022/03/08 08:01:03;;;;;;;21.38;8.63;;;;;;;1.85;72.02;102140.75;5058781;28;20012;-55
2022/03/08 08:03:28;;;;;;;27.55;9.20;;;;;;;1.94;70.74;102145.59;5059175;28;20047;-55
2022/03/08 08:05:54;;;;;;;15.98;8.52;;;;;;;2.03;71.27;102152.22;5058525;28;20047;-55
2022/03/08 08:08:19;;;;;;;20.55;8.88;;;;;;;2.12;69.97;102146.50;5052051;28;20223;-55
2022/03/08 08:10:44;;;;;;;14.25;8.00;;;;;;;2.22;69.60;102150.41;5055649;28;20056;-55
2022/03/08 08:13:09;;;;;;;14.23;8.13;;;;;;;2.31;70.52;102145.59;5054871;28;20505;-55
2022/03/08 08:15:37;;;;;;;17.08;8.38;;;;;;;2.35;69.28;102132.19;5037306;28;20491;-55
2022/03/08 08:18:02;;;;;;;17.73;8.13;;;;;;;2.48;69.17;102145.63;5036689;28;20032;-55
2022/03/08 08:20:27;;;;;;;18.50;8.02;;;;;;;2.58;67.71;102161.81;5054513;28;20431;-55
2022/03/08 08:22:53;;;;;;;18.08;8.98;;;;;;;2.65;67.27;102157.09;5055929;28;20020;-55
2022/03/08 08:25:18;;;;;;;19.05;8.55;;;;;;;2.74;69.13;102154.84;5054445;28;20533;-55
2022/03/08 08:27:43;;;;;;;15.15;8.25;;;;;;;2.85;67.28;102153.44;5054582;28;20920;-55
2022/03/08 08:30:10;;;;;;;16.02;8.57;;;;;;;2.95;66.92;102160.84;5054680;28;20537;-55
2022/03/08 08:32:36;;;;;;;14.65;8.05;;;;;;;3.06;66.16;102155.00;5050131;28;20269;-55
2022/03/08 08:35:01;;;;;;;14.35;8.20;;;;;;;3.14;67.35;102155.44;5053817;28;20074;-55
2022/03/08 08:37:26;;;;;;;13.70;7.95;;;;;;;3.24;65.16;102150.53;5054044;28;20041;-56
2022/03/08 08:39:52;;;;;;;14.30;7.97;;;;;;;3.31;65.09;102159.84;5054343;28;20366;-55
2022/03/08 08:42:18;;;;;;;12.95;7.90;;;;;;;3.42;64.63;102159.25;5055359;28;20060;-55
2022/03/08 08:44:44;;;;;;;14.57;7.80;;;;;;;3.51;64.30;102155.25;5053941;28;20108;-55
2022/03/08 08:47:09;;;;;;;15.23;8.10;;;;;;;3.60;63.50;102153.91;5052401;28;20028;-55
2022/03/08 08:49:35;;;;;;;18.90;7.38;;;;;;;3.70;63.49;102144.53;5046440;28;20029;-55
2022/03/08 08:52:00;;;;;;;13.80;7.60;;;;;;;3.79;62.62;102146.69;5055231;28;20478;-55
2022/03/08 08:54:25;;;;;;;17.08;7.78;;;;;;;3.90;62.29;102146.97;5044106;28;20206;-55
2022/03/08 08:56:50;;;;;;;15.30;7.82;;;;;;;4.04;59.91;102140.03;5042772;28;20237;-55
2022/03/08 08:59:16;;;;;;;14.20;8.15;;;;;;;4.22;60.45;102149.56;5035248;28;20191;-55
2022/03/08 09:01:41;;;;;;;16.15;8.27;;;;;;;4.41;58.64;102151.13;5035267;28;20056;-55
2022/03/08 09:04:06;;;;;;;13.05;7.25;;;;;;;4.56;58.39;102144.13;5034748;28;20471;-55
2022/03/08 09:06:32;;;;;;;11.90;6.63;;;;;;;4.75;57.02;102149.16;5053506;28;20039;-55
2022/03/08 09:08:57;;;;;;;18.48;7.68;;;;;;;4.72;56.57;102138.75;5050386;28;20032;-55
2022/03/08 09:11:23;;;;;;;19.75;7.57;;;;;;;4.77;57.11;102137.56;5054787;28;20021;-55
2022/03/08 09:13:49;;;;;;;37.83;8.27;;;;;;;4.82;55.47;102132.84;5053014;28;20028;-55
2022/03/08 09:16:17;;;;;;;26.48;7.50;;;;;;;4.90;54.43;102136.81;5054288;28;20061;-55
2022/03/08 09:18:43;;;;;;;17.30;7.45;;;;;;;4.98;54.35;102130.13;5048526;28;20032;-55
2022/03/08 09:21:10;;;;;;;12.27;7.13;;;;;;;5.05;53.54;102126.13;5045915;28;20073;-55
2022/03/08 09:23:36;;;;;;;18.10;7.70;;;;;;;5.14;53.12;102124.75;5043727;28;20036;-55
2022/03/08 09:26:01;;;;;;;19.75;7.22;;;;;;;5.20;53.92;102119.06;5054828;28;20069;-55
2022/03/08 09:28:27;;;;;;;17.60;6.97;;;;;;;5.32;51.85;102116.59;5041110;28;20028;-55
2022/03/08 09:30:52;;;;;;;15.40;6.82;;;;;;;5.39;52.10;102109.97;5054071;28;20024;-55
2022/03/08 09:33:17;;;;;;;14.02;6.85;;;;;;;5.42;50.46;102110.63;5040561;28;20031;-55
2022/03/08 09:35:43;;;;;;;13.88;6.57;;;;;;;5.54;51.20;102106.34;5041174;28;20435;-55
2022/03/08 09:38:11;;;;;;;10.65;7.05;;;;;;;5.64;50.80;102105.78;5041146;28;20075;-55
2022/03/08 09:40:37;;;;;;;10.00;6.50;;;;;;;5.70;49.64;102100.94;5044046;28;20423;-54
2022/03/08 09:43:03;;;;;;;19.08;7.25;;;;;;;5.73;49.27;102098.06;5045893;28;20032;-55
2022/03/08 09:45:28;;;;;;;13.60;7.10;;;;;;;5.84;49.76;102097.41;5035934;28;20313;-55
2022/03/08 09:47:53;;;;;;;17.13;7.05;;;;;;;5.91;49.32;102092.56;5054217;28;20020;-56
2022/03/08 09:50:19;;;;;;;12.05;6.90;;;;;;;6.01;50.36;102091.03;5053897;28;20160;-56
2022/03/08 09:52:45;;;;;;;17.42;6.85;;;;;;;6.20;50.00;102089.81;5036011;28;20028;-55
2022/03/08 09:55:14;;;;;;;16.30;6.80;;;;;;;6.24;48.79;102091.31;5053080;28;20115;-55
2022/03/08 09:57:40;;;;;;;13.25;7.50;;;;;;;6.39;48.36;102089.44;5035843;28;20028;-56
2022/03/08 10:00:07;;;;;;;15.48;7.03;;;;;;;6.47;47.30;102085.31;5047111;28;20029;-55
2022/03/08 10:02:51;;;;;;;14.10;7.43;;;;;;;6.61;46.82;102088.84;5016547;28;20507;-56
2022/03/08 10:05:25;;;;;;;13.77;6.82;;;;;;;6.67;46.97;102083.09;5038801;28;20083;-55
2022/03/08 10:08:08;;;;;;;13.07;6.53;;;;;;;6.80;47.52;102083.94;5051981;28;20047;-55
2022/03/08 10:10:46;;;;;;;14.68;7.20;;;;;;;6.92;44.98;102079.59;5053041;28;20125;-55
2022/03/08 10:13:12;;;;;;;15.50;6.90;;;;;;;6.96;45.16;102086.41;5049253;28;20459;-56
2022/03/08 10:15:38;;;;;;;15.52;7.13;;;;;;;7.09;43.71;102078.41;5050710;28;20082;-56
2022/03/08 10:18:04;;;;;;;11.48;6.72;;;;;;;7.23;43.95;102086.28;5035399;28;20029;-55
2022/03/08 10:20:31;;;;;;;12.20;5.82;;;;;;;7.29;42.42;102077.00;5046924;28;20039;-55
2022/03/08 10:22:57;;;;;;;11.45;6.63;;;;;;;7.37;43.95;102069.34;5050587;28;20105;-56
2022/03/08 10:25:25;;;;;;;14.73;6.82;;;;;;;7.57;42.60;102067.03;5038358;28;20036;-55
2022/03/08 10:27:56;;;;;;;12.73;6.30;;;;;;;7.66;40.92;102075.19;5033537;28;20013;-55
2022/03/08 10:30:45;;;;;;;14.82;6.68;;;;;;;7.75;41.99;102068.34;5039720;28;20121;-55
2022/03/08 10:33:12;;;;;;;12.00;6.32;;;;;;;7.80;40.76;102057.41;5033780;28;20039;-55
2022/03/08 10:35:42;;;;;;;13.57;6.40;;;;;;;7.82;40.58;102056.34;5043938;28;20059;-55
2022/03/08 10:38:11;;;;;;;14.02;5.95;;;;;;;8.05;40.88;102067.06;5045056;28;20342;-55
2022/03/08 10:40:37;;;;;;;13.25;5.85;;;;;;;8.22;40.62;102065.81;5053532;28;20082;-55
2022/03/08 10:43:04;;;;;;;12.57;5.57;;;;;;;8.27;38.28;102068.97;5053150;28;20025;-55
2022/03/08 10:45:32;;;;;;;12.20;5.38;;;;;;;8.28;37.58;102057.38;5048548;28;20028;-55
2022/03/08 10:47:57;;;;;;;9.43;5.40;;;;;;;8.43;38.91;102066.00;5041701;28;20040;-56
2022/03/08 10:50:29;;;;;;;10.57;5.55;;;;;;;8.58;38.89;102067.50;5039697;28;20033;-55
2022/03/08 10:52:57;;;;;;;10.60;5.85;;;;;;;8.64;38.02;102055.53;5053191;28;20028;-55
2022/03/08 10:55:26;;;;;;;9.80;5.90;;;;;;;8.78;38.14;102049.13;5051838;28;20033;-55
2022/03/08 10:57:56;;;;;;;15.70;6.07;;;;;;;8.85;36.97;102046.84;5052195;28;20396;-55
2022/03/08 11:00:27;;;;;;;14.43;5.93;;;;;;;8.86;35.88;102045.84;5049779;28;20009;-55
2022/03/08 11:02:57;;;;;;;9.70;5.70;;;;;;;8.80;36.30;102041.03;5046366;28;20526;-55
2022/03/08 11:05:25;;;;;;;8.75;5.82;;;;;;;8.88;36.67;102038.63;5040203;28;20056;-55
2022/03/08 11:07:51;;;;;;;15.95;6.05;;;;;;;8.98;37.28;102038.72;5043497;28;20475;-53
2022/03/08 11:10:18;;;;;;;12.55;6.05;;;;;;;9.03;37.06;102045.41;5048308;28;20371;-54
2022/03/08 11:12:44;;;;;;;15.02;5.60;;;;;;;9.14;36.83;102033.88;5053178;28;20305;-55
2022/03/08 11:15:13;;;;;;;13.35;5.82;;;;;;;9.23;36.51;102030.50;5042682;28;20088;-55
2022/03/08 11:17:39;;;;;;;16.42;6.00;;;;;;;9.23;36.02;102033.16;5025341;28;20048;-55